createdAt,value
2023-02-25T00:01:30.021Z,83.26
2023-02-25T00:04:36.018Z,83.32
2023-02-25T00:07:43.738Z,82.35
2023-02-25T00:11:05.324Z,82.17
2023-02-25T00:14:14.612Z,82.45
2023-02-25T00:17:24.451Z,82.65
2023-02-25T00:20:31.295Z,82.34
2023-02-25T00:23:37.243Z,82.05
2023-02-25T00:26:44.067Z,81.42
2023-02-25T00:29:56.418Z,81.94
2023-02-25T00:33:11.215Z,82.46
2023-02-25T00:36:22.097Z,81.75
2023-02-25T00:39:42.531Z,81.81
2023-02-25T00:42:50.947Z,82.29
2023-02-25T00:46:04.649Z,82.46
2023-02-25T00:49:27.034Z,82.08
2023-02-25T00:52:38.603Z,81.97
2023-02-25T00:55:46.663Z,82.54
2023-02-25T00:58:57.629Z,82.17
2023-02-25T01:02:09.709Z,82.35
2023-02-25T01:05:20.266Z,81.97
2023-02-25T01:08:26.324Z,82.04
2023-02-25T01:11:37.863Z,81.70
2023-02-25T01:14:45.108Z,81.92
2023-02-25T01:17:55.219Z,81.72
2023-02-25T01:21:08.513Z,82.53
2023-02-25T01:24:19.005Z,83.46
2023-02-25T01:27:24.919Z,83.23
2023-02-25T01:30:31.815Z,82.62
2023-02-25T01:33:39.557Z,82.61
2023-02-25T01:36:50.235Z,82.32
2023-02-25T01:39:59.003Z,82.02
2023-02-25T01:43:09.956Z,82.30
2023-02-25T01:46:16.048Z,82.07
2023-02-25T01:49:32.930Z,82.86
2023-02-25T01:52:48.955Z,83.66
2023-02-25T01:56:04.718Z,82.96
2023-02-25T01:59:16.282Z,82.10
2023-02-25T02:02:26.940Z,80.87
2023-02-25T02:06:06.155Z,81.48
2023-02-25T02:09:27.737Z,81.60
2023-02-25T02:12:45.426Z,80.47
2023-02-25T02:16:15.181Z,80.83
2023-02-25T02:19:44.936Z,81.53
2023-02-25T02:23:22.973Z,82.16
2023-02-25T02:27:00.752Z,82.56
2023-02-25T02:30:51.515Z,82.15
2023-02-25T02:34:21.630Z,80.94
2023-02-25T02:37:42.971Z,80.41
2023-02-25T02:41:12.407Z,78.82
2023-02-25T02:44:33.138Z,78.05
2023-02-25T02:47:45.853Z,79.00
2023-02-25T02:51:05.276Z,78.48
2023-02-25T02:54:17.788Z,78.66
2023-02-25T02:57:29.490Z,78.91
2023-02-25T03:00:46.110Z,79.19
2023-02-25T03:04:02.681Z,79.28
2023-02-25T03:07:18.181Z,79.41
2023-02-25T03:10:26.565Z,80.19
2023-02-25T03:13:35.901Z,80.58
2023-02-25T03:16:54.306Z,80.97
2023-02-25T03:20:18.211Z,81.15
2023-02-25T03:23:35.909Z,81.26
2023-02-25T03:26:44.683Z,81.22
2023-02-25T03:29:54.833Z,81.57
2023-02-25T03:33:12.495Z,80.99
2023-02-25T03:36:27.162Z,81.23
2023-02-25T03:39:46.435Z,81.95
2023-02-25T03:43:03.209Z,81.92
2023-02-25T03:46:12.683Z,82.02
2023-02-25T03:49:27.364Z,82.32
2023-02-25T03:52:34.606Z,82.59
2023-02-25T03:55:47.782Z,81.97
2023-02-25T03:58:54.693Z,82.55
2023-02-25T04:02:04.595Z,82.57
2023-02-25T04:05:13.128Z,82.81
2023-02-25T04:08:19.680Z,82.78
2023-02-25T04:11:29.254Z,82.92
2023-02-25T04:14:35.097Z,82.41
2023-02-25T04:17:41.874Z,81.82
2023-02-25T04:20:48.078Z,82.24
2023-02-25T04:23:54.798Z,81.66
2023-02-25T04:27:03.626Z,81.78
2023-02-25T04:30:14.288Z,81.76
2023-02-25T04:33:20.201Z,81.41
2023-02-25T04:36:31.401Z,81.26
2023-02-25T04:39:37.274Z,80.74
2023-02-25T04:42:47.117Z,81.28
2023-02-25T04:45:52.886Z,80.44
2023-02-25T04:48:59.862Z,80.34
2023-02-25T04:52:06.063Z,80.12
2023-02-25T04:55:13.770Z,80.10
2023-02-25T04:58:24.414Z,80.32
2023-02-25T05:01:31.645Z,80.44
2023-02-25T05:04:38.046Z,80.33
2023-02-25T05:07:44.933Z,80.52
2023-02-25T05:10:50.864Z,80.72
2023-02-25T05:14:00.175Z,80.68
2023-02-25T05:17:06.134Z,80.75
2023-02-25T05:20:14.837Z,80.59
2023-02-25T05:23:20.715Z,80.44
2023-02-25T05:26:28.844Z,80.92
2023-02-25T05:29:37.798Z,81.77
2023-02-25T05:32:45.134Z,82.42
2023-02-25T05:35:51.367Z,83.65
2023-02-25T05:39:03.024Z,84.09
2023-02-25T05:42:09.220Z,84.33
2023-02-25T05:45:20.117Z,84.12
2023-02-25T05:48:26.814Z,84.06
2023-02-25T05:51:33.598Z,83.80
2023-02-25T05:54:39.635Z,83.40
2023-02-25T05:57:46.439Z,83.13
2023-02-25T06:00:54.996Z,83.06
2023-02-25T06:04:02.887Z,82.85
2023-02-25T06:07:08.785Z,83.19
2023-02-25T06:10:16.121Z,82.81
2023-02-25T06:13:22.025Z,83.00
2023-02-25T06:16:33.227Z,82.47
2023-02-25T06:19:39.328Z,81.50
2023-02-25T06:22:46.487Z,80.27
2023-02-25T06:25:52.438Z,80.18
2023-02-25T06:29:00.280Z,80.00
2023-02-25T06:32:08.915Z,79.20
2023-02-25T06:35:17.071Z,79.06
2023-02-25T06:38:23.570Z,79.10
2023-02-25T06:41:30.580Z,77.96
2023-02-25T06:44:36.496Z,78.08
2023-02-25T06:47:45.883Z,77.93
2023-02-25T06:50:52.739Z,77.31
2023-02-25T06:53:59.777Z,77.01
2023-02-25T06:57:06.035Z,77.19
2023-02-25T07:00:15.083Z,77.59
2023-02-25T07:03:23.930Z,76.31
2023-02-25T07:06:30.715Z,76.25
2023-02-25T07:09:36.582Z,75.76
2023-02-25T07:12:43.333Z,76.08
2023-02-25T07:15:49.313Z,76.06
2023-02-25T07:19:00.142Z,75.71
2023-02-25T07:22:06.400Z,75.31
2023-02-25T07:25:14.989Z,75.99
2023-02-25T07:28:20.909Z,75.32
2023-02-25T07:31:29.531Z,75.00
2023-02-25T07:34:40.475Z,74.99
2023-02-25T07:37:47.298Z,76.09
2023-02-25T07:40:53.302Z,76.91
2023-02-25T07:44:00.236Z,76.86
2023-02-25T07:47:06.135Z,76.75
2023-02-25T07:50:16.740Z,76.71
2023-02-25T07:53:23.189Z,72.99
2023-02-25T07:56:33.414Z,72.89
2023-02-25T07:59:39.345Z,72.19
2023-02-25T08:02:47.915Z,70.32
2023-02-25T08:05:57.703Z,68.24
2023-02-25T08:09:05.919Z,67.41
2023-02-25T08:12:12.366Z,67.80
2023-02-25T08:15:19.284Z,68.10
2023-02-25T08:18:26.081Z,67.19
2023-02-25T08:21:37.645Z,67.75
2023-02-25T08:24:43.945Z,67.49
2023-02-25T08:27:50.699Z,66.76
2023-02-25T08:30:57.669Z,67.19
2023-02-25T08:34:04.806Z,67.72
2023-02-25T08:37:15.310Z,68.29
2023-02-25T08:40:23.582Z,67.95
2023-02-25T08:43:29.604Z,67.66
2023-02-25T08:46:37.436Z,67.93
2023-02-25T08:49:44.347Z,65.78
2023-02-25T08:52:53.941Z,66.03
2023-02-25T08:55:59.813Z,63.27
2023-02-25T08:59:08.139Z,62.92
2023-02-25T09:02:17.632Z,61.88
2023-02-25T09:05:24.469Z,61.37
2023-02-25T09:08:32.941Z,61.78
2023-02-25T09:11:39.652Z,61.40
2023-02-25T09:14:45.518Z,60.75
2023-02-25T09:17:53.385Z,60.89
2023-02-25T09:20:59.602Z,60.22
2023-02-25T09:24:10.380Z,59.13
2023-02-25T09:27:16.720Z,60.38
2023-02-25T09:30:23.736Z,61.00
2023-02-25T09:33:30.106Z,61.01
2023-02-25T09:36:38.223Z,60.54
2023-02-25T09:39:46.862Z,60.95
2023-02-25T09:43:17.529Z,59.97
2023-02-25T09:46:23.812Z,60.66
2023-02-25T09:49:40.564Z,62.09
2023-02-25T09:53:00.573Z,62.57
2023-02-25T09:56:15.373Z,64.46
2023-02-25T09:59:24.707Z,65.00
2023-02-25T10:02:42.142Z,65.68
2023-02-25T10:06:03.453Z,66.75
2023-02-25T10:09:26.784Z,67.44
2023-02-25T10:12:46.864Z,67.43
2023-02-25T10:16:14.337Z,68.58
2023-02-25T10:19:45.759Z,69.27
2023-02-25T10:23:07.078Z,69.79
2023-02-25T10:26:23.082Z,69.12
2023-02-25T10:29:42.570Z,69.30
2023-02-25T10:32:49.963Z,70.92
2023-02-25T10:36:10.824Z,69.94
2023-02-25T10:39:16.876Z,70.49
2023-02-25T10:42:23.756Z,71.37
2023-02-25T10:45:35.404Z,72.18
2023-02-25T10:48:45.915Z,73.29
2023-02-25T10:52:03.476Z,73.21
2023-02-25T10:55:40.040Z,74.85
2023-02-25T10:59:01.909Z,76.40
2023-02-25T11:02:28.102Z,76.22
2023-02-25T11:05:39.206Z,75.81
2023-02-25T11:08:46.466Z,73.99
2023-02-25T11:11:59.998Z,72.46
2023-02-25T11:15:44.285Z,68.89
2023-02-25T11:19:03.000Z,66.26
2023-02-25T11:22:20.457Z,64.80
2023-02-25T11:25:43.799Z,65.08
2023-02-25T11:28:53.332Z,65.03
2023-02-25T11:32:10.670Z,64.09
2023-02-25T11:35:30.996Z,66.76
2023-02-25T11:38:40.380Z,67.15
2023-02-25T11:41:48.442Z,67.04
2023-02-25T11:45:04.081Z,67.91
2023-02-25T11:48:24.105Z,67.73
2023-02-25T11:51:47.201Z,67.28
2023-02-25T11:55:16.894Z,67.80
2023-02-25T11:58:41.178Z,67.54
2023-02-25T12:02:20.782Z,68.15
2023-02-25T12:05:51.020Z,68.72
2023-02-25T12:09:52.254Z,68.56
2023-02-25T12:13:51.708Z,68.16
2023-02-25T12:17:53.033Z,68.38
2023-02-25T12:21:45.078Z,66.81
2023-02-25T12:25:19.544Z,67.03
2023-02-25T12:29:00.644Z,65.53
2023-02-25T12:33:00.231Z,64.68
2023-02-25T12:36:44.118Z,64.84
2023-02-25T12:40:12.365Z,64.15
2023-02-25T12:43:38.602Z,63.58
2023-02-25T12:47:30.292Z,62.10
2023-02-25T12:51:16.016Z,61.17
2023-02-25T12:55:13.249Z,61.23
2023-02-25T12:59:07.659Z,62.10
2023-02-25T13:02:54.640Z,62.61
2023-02-25T13:06:42.733Z,64.67
2023-02-25T13:10:13.360Z,68.43
2023-02-25T13:14:08.717Z,69.06
2023-02-25T13:17:46.587Z,70.14
2023-02-25T13:21:38.021Z,69.89
2023-02-25T13:24:59.960Z,70.74
2023-02-25T13:28:45.481Z,71.06
2023-02-25T13:32:14.727Z,70.67
2023-02-25T13:35:42.827Z,70.91
2023-02-25T13:39:27.315Z,70.23
2023-02-25T13:43:03.960Z,68.58
2023-02-25T13:46:54.290Z,67.02
2023-02-25T13:50:28.309Z,68.01
2023-02-25T13:54:10.764Z,72.62
2023-02-25T13:57:43.210Z,77.24
2023-02-25T14:01:35.883Z,77.42
2023-02-25T14:05:22.040Z,77.18
2023-02-25T14:08:59.967Z,74.88
2023-02-25T14:12:30.821Z,73.21
2023-02-25T14:16:08.072Z,73.67
2023-02-25T14:19:39.730Z,73.04
2023-02-25T14:22:54.740Z,74.04
2023-02-25T14:26:29.165Z,74.95
2023-02-25T14:30:02.342Z,75.28
2023-02-25T14:33:37.838Z,76.74
2023-02-25T14:37:25.528Z,77.29
2023-02-25T14:40:44.389Z,76.82
2023-02-25T14:43:58.508Z,75.98
2023-02-25T14:47:14.186Z,75.52
2023-02-25T14:50:32.474Z,76.02
2023-02-25T14:54:23.546Z,74.76
2023-02-25T14:58:32.146Z,74.82
2023-02-25T15:02:22.508Z,74.11
2023-02-25T15:05:58.563Z,74.19
2023-02-25T15:09:58.358Z,74.53
2023-02-25T15:13:44.757Z,74.62
2023-02-25T15:17:40.006Z,75.46
2023-02-25T15:20:48.212Z,74.36
2023-02-25T15:23:56.142Z,74.84
2023-02-25T15:27:56.652Z,75.10
2023-02-25T15:31:34.236Z,74.96
2023-02-25T15:34:55.848Z,75.06
2023-02-25T15:38:13.825Z,76.07
2023-02-25T15:42:01.154Z,76.71
2023-02-25T15:45:41.522Z,77.90
2023-02-25T15:49:10.455Z,77.65
2023-02-25T15:52:55.605Z,78.21
2023-02-25T15:56:32.150Z,78.51
2023-02-25T15:59:50.684Z,78.93
2023-02-25T16:03:08.381Z,80.14
2023-02-25T16:06:25.885Z,80.63
2023-02-25T16:09:32.857Z,79.89
2023-02-25T16:12:44.358Z,80.13
2023-02-25T16:15:58.595Z,80.18
2023-02-25T16:19:10.232Z,80.13
2023-02-25T16:22:31.521Z,80.52
2023-02-25T16:25:55.117Z,80.59
2023-02-25T16:29:40.557Z,80.35
2023-02-25T16:33:02.898Z,80.26
2023-02-25T16:36:33.640Z,80.07
2023-02-25T16:39:41.832Z,79.88
2023-02-25T16:42:49.657Z,79.78
2023-02-25T16:46:01.808Z,80.17
2023-02-25T16:49:21.047Z,80.96
2023-02-25T16:52:35.611Z,80.70
2023-02-25T16:55:44.197Z,80.08
2023-02-25T16:59:06.849Z,80.14
2023-02-25T17:02:28.024Z,79.59
2023-02-25T17:05:38.447Z,79.11
2023-02-25T17:08:52.643Z,79.58
2023-02-25T17:12:04.095Z,79.42
2023-02-25T17:15:22.596Z,79.07
2023-02-25T17:18:35.898Z,78.91
2023-02-25T17:21:47.483Z,79.15
2023-02-25T17:25:00.834Z,78.96
2023-02-25T17:28:11.403Z,78.46
2023-02-25T17:31:27.093Z,77.50
2023-02-25T17:34:38.829Z,77.05
2023-02-25T17:37:45.079Z,76.55
2023-02-25T17:40:56.345Z,77.13
2023-02-25T17:44:02.501Z,76.77
2023-02-25T17:47:15.362Z,76.25
2023-02-25T17:50:33.204Z,75.28
2023-02-25T17:53:48.705Z,75.32
2023-02-25T17:57:05.088Z,76.20
2023-02-25T18:00:29.491Z,76.44
2023-02-25T18:03:49.154Z,75.60
2023-02-25T18:06:58.451Z,74.89
2023-02-25T18:10:05.000Z,75.62
2023-02-25T18:13:28.170Z,75.13
2023-02-25T18:16:43.001Z,74.71
2023-02-25T18:19:51.065Z,74.90
2023-02-25T18:23:00.324Z,74.46
2023-02-25T18:26:20.800Z,74.71
2023-02-25T18:29:29.295Z,74.68
2023-02-25T18:32:36.722Z,74.25
2023-02-25T18:35:47.863Z,74.64
2023-02-25T18:38:58.544Z,74.97
2023-02-25T18:42:05.513Z,75.41
2023-02-25T18:45:23.999Z,75.94
2023-02-25T18:48:32.655Z,76.46
2023-02-25T18:51:39.777Z,76.09
2023-02-25T18:54:45.658Z,76.36
2023-02-25T18:57:52.728Z,76.35
2023-02-25T19:01:02.557Z,76.61
2023-02-25T19:04:09.353Z,76.11
2023-02-25T19:07:15.590Z,76.19
2023-02-25T19:10:26.122Z,76.28
2023-02-25T19:13:38.046Z,75.92
2023-02-25T19:16:47.359Z,75.69
2023-02-25T19:19:53.191Z,75.93
2023-02-25T19:23:00.222Z,76.34
2023-02-25T19:26:08.589Z,76.04
2023-02-25T19:29:15.269Z,76.21
2023-02-25T19:32:24.677Z,76.08
2023-02-25T19:35:32.271Z,75.89
2023-02-25T19:38:38.310Z,76.27
2023-02-25T19:41:45.028Z,76.27
2023-02-25T19:44:50.825Z,76.09
2023-02-25T19:48:00.667Z,76.61
2023-02-25T19:51:09.886Z,76.43
2023-02-25T19:54:16.731Z,76.79
2023-02-25T19:57:22.624Z,77.46
2023-02-25T20:00:29.927Z,77.34
2023-02-25T20:03:39.398Z,78.09
2023-02-25T20:06:46.404Z,78.00
2023-02-25T20:09:52.352Z,78.79
2023-02-25T20:12:59.064Z,79.28
2023-02-25T20:16:05.779Z,79.62
2023-02-25T20:19:15.142Z,79.88
2023-02-25T20:22:23.989Z,80.41
2023-02-25T20:25:30.698Z,81.49
2023-02-25T20:28:36.523Z,82.02
2023-02-25T20:31:43.853Z,82.58
2023-02-25T20:34:53.117Z,83.04
2023-02-25T20:38:23.509Z,83.17
2023-02-25T20:41:29.982Z,83.65
2023-02-25T20:44:37.257Z,83.57
2023-02-25T20:47:46.840Z,83.71
2023-02-25T20:50:57.174Z,83.81
2023-02-25T20:54:03.995Z,84.05
2023-02-25T20:57:15.099Z,84.08
2023-02-25T21:00:23.009Z,84.25
2023-02-25T21:03:29.675Z,84.63
2023-02-25T21:06:39.019Z,84.76
2023-02-25T21:09:45.882Z,84.56
2023-02-25T21:12:51.807Z,85.06
2023-02-25T21:16:02.866Z,85.36
2023-02-25T21:19:10.459Z,85.56
2023-02-25T21:22:19.775Z,85.92
2023-02-25T21:25:25.823Z,86.01
2023-02-25T21:28:32.668Z,85.65
2023-02-25T21:31:39.329Z,85.75
2023-02-25T21:34:46.071Z,85.71
2023-02-25T21:37:54.475Z,85.99
2023-02-25T21:41:08.173Z,85.78
2023-02-25T21:44:14.448Z,85.18
2023-02-25T21:47:21.145Z,85.06
2023-02-25T21:50:27.634Z,85.48
2023-02-25T21:53:37.419Z,85.80
2023-02-25T21:56:44.273Z,85.51
2023-02-25T21:59:52.436Z,85.43
2023-02-25T22:02:58.281Z,85.70
2023-02-25T22:06:05.590Z,85.84
2023-02-25T22:09:14.749Z,85.60
2023-02-25T22:12:21.461Z,85.64
2023-02-25T22:15:27.278Z,85.59
2023-02-25T22:18:35.364Z,86.05
2023-02-25T22:21:41.258Z,85.39
2023-02-25T22:24:50.636Z,85.22
2023-02-25T22:27:56.472Z,84.50
2023-02-25T22:31:03.481Z,84.20
2023-02-25T22:34:10.306Z,84.38
2023-02-25T22:37:17.026Z,84.00
2023-02-25T22:40:25.554Z,83.76
2023-02-25T22:43:34.711Z,83.78
2023-02-25T22:46:42.581Z,83.37
2023-02-25T22:49:49.303Z,83.24
2023-02-25T22:52:55.285Z,83.92
2023-02-25T22:56:09.190Z,83.80
2023-02-25T22:59:17.654Z,84.19
2023-02-25T23:02:24.504Z,84.09
2023-02-25T23:05:30.439Z,83.85
2023-02-25T23:08:38.294Z,83.30
2023-02-25T23:11:48.021Z,83.31
2023-02-25T23:14:54.711Z,83.54
2023-02-25T23:18:03.686Z,83.69
2023-02-25T23:21:15.919Z,83.57
2023-02-25T23:24:22.163Z,83.77
2023-02-25T23:27:31.895Z,83.50
2023-02-25T23:30:41.624Z,83.36
2023-02-25T23:33:48.504Z,83.77
2023-02-25T23:36:58.584Z,83.78
2023-02-25T23:40:05.345Z,83.68
2023-02-25T23:43:13.902Z,83.86
2023-02-25T23:46:20.571Z,83.88
2023-02-25T23:49:26.446Z,83.31
2023-02-25T23:52:33.106Z,83.16
2023-02-25T23:55:39.355Z,82.72
2023-02-25T23:58:54.025Z,83.08
